sensor_id;sensor_type;location;lat;lon;timestamp;pressure;altitude;pressure_sealevel;temperature;humidity
21658;BME280;10990;48.174;9.782;2022-11-23T00:01:27;91826.16;;;3.48;100.00
21658;BME280;10990;48.174;9.782;2022-11-23T00:03:56;91819.13;;;3.49;100.00
21658;BME280;10990;48.174;9.782;2022-11-23T00:06:24;91828.78;;;3.42;100.00
21658;BME280;10990;48.174;9.782;2022-11-23T00:08:52;91802.44;;;3.56;100.00
21658;BME280;10990;48.174;9.782;2022-11-23T00:11:20;91796.22;;;3.64;100.00
21658;BME280;10990;48.174;9.782;2022-11-23T00:13:47;91798.03;;;3.64;100.00
21658;BME280;10990;48.174;9.782;2022-11-23T00:16:15;91795.44;;;3.64;100.00
21658;BME280;10990;48.174;9.782;2022-11-23T00:18:44;91803.03;;;3.52;100.00
21658;BME280;10990;48.174;9.782;2022-11-23T00:21:13;91814.94;;;3.41;100.00
21658;BME280;10990;48.174;9.782;2022-11-23T00:23:40;91825.16;;;3.29;100.00
21658;BME280;10990;48.174;9.782;2022-11-23T00:26:08;91820.16;;;3.21;100.00
21658;BME280;10990;48.174;9.782;2022-11-23T00:28:35;91810.28;;;3.36;100.00
21658;BME280;10990;48.174;9.782;2022-11-23T00:31:04;91811.31;;;3.35;100.00
21658;BME280;10990;48.174;9.782;2022-11-23T00:33:31;91815.72;;;3.35;100.00
21658;BME280;10990;48.174;9.782;2022-11-23T00:36:01;91825.38;;;3.21;100.00
21658;BME280;10990;48.174;9.782;2022-11-23T00:38:29;91828.75;;;3.15;100.00
21658;BME280;10990;48.174;9.782;2022-11-23T00:40:58;91808.88;;;3.34;100.00
21658;BME280;10990;48.174;9.782;2022-11-23T00:43:25;91812.31;;;3.28;100.00
21658;BME280;10990;48.174;9.782;2022-11-23T00:46:02;91806.47;;;3.26;100.00
21658;BME280;10990;48.174;9.782;2022-11-23T00:48:29;91803.88;;;3.32;100.00
21658;BME280;10990;48.174;9.782;2022-11-23T00:50:56;91799.84;;;3.36;100.00
21658;BME280;10990;48.174;9.782;2022-11-23T00:53:26;91803.47;;;3.35;100.00
21658;BME280;10990;48.174;9.782;2022-11-23T00:55:54;91804.69;;;3.33;100.00
21658;BME280;10990;48.174;9.782;2022-11-23T00:58:21;91788.19;;;3.46;100.00
21658;BME280;10990;48.174;9.782;2022-11-23T01:00:49;91799.25;;;3.34;100.00
21658;BME280;10990;48.174;9.782;2022-11-23T01:03:16;91793.44;;;3.39;100.00
21658;BME280;10990;48.174;9.782;2022-11-23T01:05:43;91791.63;;;3.40;100.00
21658;BME280;10990;48.174;9.782;2022-11-23T01:08:10;91782.38;;;3.44;100.00
21658;BME280;10990;48.174;9.782;2022-11-23T01:10:38;91777.16;;;3.50;100.00
21658;BME280;10990;48.174;9.782;2022-11-23T01:13:05;91780.16;;;3.47;100.00
21658;BME280;10990;48.174;9.782;2022-11-23T01:15:31;91774.94;;;3.54;100.00
21658;BME280;10990;48.174;9.782;2022-11-23T01:17:58;91776.13;;;3.51;100.00
21658;BME280;10990;48.174;9.782;2022-11-23T01:20:25;91771.72;;;3.58;100.00
21658;BME280;10990;48.174;9.782;2022-11-23T01:22:52;91760.03;;;3.68;100.00
21658;BME280;10990;48.174;9.782;2022-11-23T01:25:19;91765.06;;;3.69;100.00
21658;BME280;10990;48.174;9.782;2022-11-23T01:27:47;91772.72;;;3.64;100.00
21658;BME280;10990;48.174;9.782;2022-11-23T01:30:15;91764.44;;;3.74;100.00
21658;BME280;10990;48.174;9.782;2022-11-23T01:32:41;91769.25;;;3.77;100.00
21658;BME280;10990;48.174;9.782;2022-11-23T01:35:08;91757.19;;;3.82;100.00
21658;BME280;10990;48.174;9.782;2022-11-23T01:37:35;91768.66;;;3.81;100.00
21658;BME280;10990;48.174;9.782;2022-11-23T01:40:02;91757.75;;;3.98;100.00
21658;BME280;10990;48.174;9.782;2022-11-23T01:42:42;91765.59;;;3.98;100.00
21658;BME280;10990;48.174;9.782;2022-11-23T01:45:39;91762.41;;;3.89;100.00
21658;BME280;10990;48.174;9.782;2022-11-23T01:48:14;91770.69;;;3.73;100.00
21658;BME280;10990;48.174;9.782;2022-11-23T01:50:44;91768.47;;;3.70;100.00
21658;BME280;10990;48.174;9.782;2022-11-23T01:53:12;91768.47;;;3.63;100.00
21658;BME280;10990;48.174;9.782;2022-11-23T01:55:39;91744.13;;;3.82;100.00
21658;BME280;10990;48.174;9.782;2022-11-23T01:58:07;91730.41;;;3.94;100.00
21658;BME280;10990;48.174;9.782;2022-11-23T02:00:36;91728.78;;;3.99;100.00
21658;BME280;10990;48.174;9.782;2022-11-23T02:03:04;91723.97;;;4.03;100.00
21658;BME280;10990;48.174;9.782;2022-11-23T02:05:34;91736.66;;;3.93;100.00
21658;BME280;10990;48.174;9.782;2022-11-23T02:08:04;91723.31;;;4.08;100.00
21658;BME280;10990;48.174;9.782;2022-11-23T02:10:33;91740.28;;;3.92;100.00
21658;BME280;10990;48.174;9.782;2022-11-23T02:13:02;91745.09;;;3.88;100.00
21658;BME280;10990;48.174;9.782;2022-11-23T02:15:30;91730.25;;;3.89;100.00
21658;BME280;10990;48.174;9.782;2022-11-23T02:17:58;91731.09;;;3.76;100.00
21658;BME280;10990;48.174;9.782;2022-11-23T02:20:29;91714.16;;;3.85;100.00
21658;BME280;10990;48.174;9.782;2022-11-23T02:23:05;91726.66;;;3.76;100.00
21658;BME280;10990;48.174;9.782;2022-11-23T02:25:40;91729.91;;;3.65;100.00
21658;BME280;10990;48.174;9.782;2022-11-23T02:28:12;91718.84;;;3.70;100.00
21658;BME280;10990;48.174;9.782;2022-11-23T02:30:43;91699.69;;;3.82;100.00
21658;BME280;10990;48.174;9.782;2022-11-23T02:33:12;91701.97;;;3.72;100.00
21658;BME280;10990;48.174;9.782;2022-11-23T02:35:46;91703.41;;;3.55;100.00
21658;BME280;10990;48.174;9.782;2022-11-23T02:38:13;91708.03;;;3.46;100.00
21658;BME280;10990;48.174;9.782;2022-11-23T02:40:41;91703.03;;;3.45;100.00
21658;BME280;10990;48.174;9.782;2022-11-23T02:43:08;91702.44;;;3.36;100.00
21658;BME280;10990;48.174;9.782;2022-11-23T02:45:41;91705.44;;;3.26;100.00
21658;BME280;10990;48.174;9.782;2022-11-23T02:48:11;91694.19;;;3.39;100.00
21658;BME280;10990;48.174;9.782;2022-11-23T02:50:37;91694.00;;;3.34;100.00
21658;BME280;10990;48.174;9.782;2022-11-23T02:53:05;91681.75;;;3.41;100.00
21658;BME280;10990;48.174;9.782;2022-11-23T02:55:32;91681.16;;;3.32;100.00
21658;BME280;10990;48.174;9.782;2022-11-23T02:58:00;91679.34;;;3.33;100.00
21658;BME280;10990;48.174;9.782;2022-11-23T03:00:27;91672.09;;;3.35;100.00
21658;BME280;10990;48.174;9.782;2022-11-23T03:02:57;91663.28;;;3.36;100.00
21658;BME280;10990;48.174;9.782;2022-11-23T03:05:24;91655.22;;;3.37;100.00
21658;BME280;10990;48.174;9.782;2022-11-23T03:07:51;91647.81;;;3.41;100.00
21658;BME280;10990;48.174;9.782;2022-11-23T03:10:19;91636.16;;;3.44;100.00
21658;BME280;10990;48.174;9.782;2022-11-23T03:12:52;91639.78;;;3.36;100.00
21658;BME280;10990;48.174;9.782;2022-11-23T03:15:19;91632.94;;;3.42;100.00
21658;BME280;10990;48.174;9.782;2022-11-23T03:17:48;91643.22;;;3.23;100.00
21658;BME280;10990;48.174;9.782;2022-11-23T03:20:16;91628.75;;;3.27;100.00
21658;BME280;10990;48.174;9.782;2022-11-23T03:22:47;91629.75;;;3.26;100.00
21658;BME280;10990;48.174;9.782;2022-11-23T03:25:16;91640.41;;;3.18;100.00
21658;BME280;10990;48.174;9.782;2022-11-23T03:27:45;91619.50;;;3.31;100.00
21658;BME280;10990;48.174;9.782;2022-11-23T03:30:12;91618.25;;;3.41;100.00
21658;BME280;10990;48.174;9.782;2022-11-23T03:32:39;91614.22;;;3.45;100.00
21658;BME280;10990;48.174;9.782;2022-11-23T03:35:06;91615.63;;;3.41;100.00
21658;BME280;10990;48.174;9.782;2022-11-23T03:37:45;91592.69;;;3.56;100.00
21658;BME280;10990;48.174;9.782;2022-11-23T03:40:13;91598.91;;;3.62;100.00
21658;BME280;10990;48.174;9.782;2022-11-23T03:43:09;91602.72;;;3.59;100.00
21658;BME280;10990;48.174;9.782;2022-11-23T03:45:36;91614.00;;;3.46;100.00
21658;BME280;10990;48.174;9.782;2022-11-23T03:48:03;91624.88;;;3.50;100.00
21658;BME280;10990;48.174;9.782;2022-11-23T03:50:30;91605.16;;;3.54;100.00
21658;BME280;10990;48.174;9.782;2022-11-23T03:52:59;91616.84;;;3.45;100.00
21658;BME280;10990;48.174;9.782;2022-11-23T03:55:27;91616.25;;;3.43;100.00
21658;BME280;10990;48.174;9.782;2022-11-23T03:57:54;91605.97;;;3.48;100.00
21658;BME280;10990;48.174;9.782;2022-11-23T04:00:25;91606.59;;;3.50;100.00
21658;BME280;10990;48.174;9.782;2022-11-23T04:02:52;91613.63;;;3.43;100.00
21658;BME280;10990;48.174;9.782;2022-11-23T04:05:51;91594.72;;;3.54;100.00
21658;BME280;10990;48.174;9.782;2022-11-23T04:08:39;91604.78;;;3.50;100.00
21658;BME280;10990;48.174;9.782;2022-11-23T04:11:12;91624.31;;;3.34;100.00
21658;BME280;10990;48.174;9.782;2022-11-23T04:13:45;91606.59;;;3.50;100.00
21658;BME280;10990;48.174;9.782;2022-11-23T04:16:12;91604.97;;;3.55;100.00
21658;BME280;10990;48.174;9.782;2022-11-23T04:18:39;91613.84;;;3.41;100.00
21658;BME280;10990;48.174;9.782;2022-11-23T04:21:07;91594.47;;;3.62;100.00
21658;BME280;10990;48.174;9.782;2022-11-23T04:23:34;91596.47;;;3.60;100.00
21658;BME280;10990;48.174;9.782;2022-11-23T04:26:04;91603.34;;;3.54;100.00
21658;BME280;10990;48.174;9.782;2022-11-23T04:28:32;91601.50;;;3.62;100.00
21658;BME280;10990;48.174;9.782;2022-11-23T04:30:59;91615.41;;;3.55;100.00
21658;BME280;10990;48.174;9.782;2022-11-23T04:33:33;91590.03;;;3.69;100.00
21658;BME280;10990;48.174;9.782;2022-11-23T04:36:02;91599.69;;;3.62;100.00
21658;BME280;10990;48.174;9.782;2022-11-23T04:38:29;91597.47;;;3.66;100.00
21658;BME280;10990;48.174;9.782;2022-11-23T04:40:56;91606.78;;;3.48;100.00
21658;BME280;10990;48.174;9.782;2022-11-23T04:43:24;91599.72;;;3.55;100.00
21658;BME280;10990;48.174;9.782;2022-11-23T04:45:53;91596.09;;;3.56;100.00
21658;BME280;10990;48.174;9.782;2022-11-23T04:48:26;91611.66;;;3.38;100.00
21658;BME280;10990;48.174;9.782;2022-11-23T04:50:54;91601.00;;;3.40;100.00
21658;BME280;10990;48.174;9.782;2022-11-23T04:53:31;91602.03;;;3.25;100.00
21658;BME280;10990;48.174;9.782;2022-11-23T04:55:59;91600.66;;;3.16;100.00
21658;BME280;10990;48.174;9.782;2022-11-23T04:58:27;91595.63;;;3.14;100.00
21658;BME280;10990;48.174;9.782;2022-11-23T05:00:56;91576.56;;;3.14;100.00
21658;BME280;10990;48.174;9.782;2022-11-23T05:03:24;91562.28;;;3.23;100.00
21658;BME280;10990;48.174;9.782;2022-11-23T05:05:51;91559.88;;;3.22;100.00
21658;BME280;10990;48.174;9.782;2022-11-23T05:08:18;91560.13;;;3.13;100.00
21658;BME280;10990;48.174;9.782;2022-11-23T05:10:51;91530.16;;;3.23;100.00
21658;BME280;10990;48.174;9.782;2022-11-23T05:13:18;91518.28;;;3.33;100.00
21658;BME280;10990;48.174;9.782;2022-11-23T05:15:48;91518.88;;;3.29;100.00
21658;BME280;10990;48.174;9.782;2022-11-23T05:18:19;91517.72;;;3.25;100.00
21658;BME280;10990;48.174;9.782;2022-11-23T05:20:48;91492.75;;;3.35;100.00
21658;BME280;10990;48.174;9.782;2022-11-23T05:23:15;91497.94;;;3.42;100.00
21658;BME280;10990;48.174;9.782;2022-11-23T05:25:43;91506.63;;;3.29;100.00
21658;BME280;10990;48.174;9.782;2022-11-23T05:28:16;91498.19;;;3.34;100.00
21658;BME280;10990;48.174;9.782;2022-11-23T05:30:43;91494.16;;;3.31;100.00
21658;BME280;10990;48.174;9.782;2022-11-23T05:33:12;91507.28;;;3.18;100.00
21658;BME280;10990;48.174;9.782;2022-11-23T05:35:42;91475.88;;;3.38;100.00
21658;BME280;10990;48.174;9.782;2022-11-23T05:38:09;91466.19;;;3.45;100.00
21658;BME280;10990;48.174;9.782;2022-11-23T05:40:36;91467.41;;;3.43;100.00
21658;BME280;10990;48.174;9.782;2022-11-23T05:43:06;91464.19;;;3.41;100.00
21658;BME280;10990;48.174;9.782;2022-11-23T05:45:34;91470.25;;;3.41;100.00
21658;BME280;10990;48.174;9.782;2022-11-23T05:48:02;91479.53;;;3.24;100.00
21658;BME280;10990;48.174;9.782;2022-11-23T05:51:09;91451.81;;;3.29;100.00
21658;BME280;10990;48.174;9.782;2022-11-23T05:53:41;91443.94;;;3.36;100.00
21658;BME280;10990;48.174;9.782;2022-11-23T05:56:16;91442.50;;;3.40;100.00
21658;BME280;10990;48.174;9.782;2022-11-23T05:59:10;91438.91;;;3.34;100.00
21658;BME280;10990;48.174;9.782;2022-11-23T06:01:39;91453.41;;;3.30;100.00
21658;BME280;10990;48.174;9.782;2022-11-23T06:04:08;91463.31;;;3.22;100.00
21658;BME280;10990;48.174;9.782;2022-11-23T06:06:41;91468.16;;;3.11;100.00
21658;BME280;10990;48.174;9.782;2022-11-23T06:09:08;91460.47;;;3.23;100.00
21658;BME280;10990;48.174;9.782;2022-11-23T06:11:38;91450.00;;;3.30;100.00
21658;BME280;10990;48.174;9.782;2022-11-23T06:14:10;91483.69;;;3.00;100.00
21658;BME280;10990;48.174;9.782;2022-11-23T06:16:37;91481.91;;;2.87;100.00
21658;BME280;10990;48.174;9.782;2022-11-23T06:19:22;91466.66;;;2.90;100.00
21658;BME280;10990;48.174;9.782;2022-11-23T06:21:52;91452.13;;;3.08;100.00
21658;BME280;10990;48.174;9.782;2022-11-23T06:24:20;91442.28;;;3.10;100.00
21658;BME280;10990;48.174;9.782;2022-11-23T06:26:58;91446.69;;;3.09;100.00
21658;BME280;10990;48.174;9.782;2022-11-23T06:29:25;91445.28;;;3.07;100.00
21658;BME280;10990;48.174;9.782;2022-11-23T06:31:52;91433.41;;;3.18;100.00
21658;BME280;10990;48.174;9.782;2022-11-23T06:34:19;91444.81;;;3.23;100.00
21658;BME280;10990;48.174;9.782;2022-11-23T06:36:46;91464.34;;;3.14;100.00
21658;BME280;10990;48.174;9.782;2022-11-23T06:39:14;91468.13;;;3.18;100.00
21658;BME280;10990;48.174;9.782;2022-11-23T06:41:40;91487.44;;;3.10;100.00
21658;BME280;10990;48.174;9.782;2022-11-23T06:44:07;91516.19;;;2.97;100.00
21658;BME280;10990;48.174;9.782;2022-11-23T06:46:41;91503.72;;;3.06;100.00
21658;BME280;10990;48.174;9.782;2022-11-23T06:49:07;91495.28;;;3.10;100.00
21658;BME280;10990;48.174;9.782;2022-11-23T06:51:35;91496.22;;;3.23;100.00
21658;BME280;10990;48.174;9.782;2022-11-23T06:54:02;91498.47;;;3.19;100.00
21658;BME280;10990;48.174;9.782;2022-11-23T06:56:31;91507.66;;;3.28;100.00
21658;BME280;10990;48.174;9.782;2022-11-23T06:58:58;91516.53;;;3.14;100.00
21658;BME280;10990;48.174;9.782;2022-11-23T07:01:26;91530.41;;;3.08;100.00
21658;BME280;10990;48.174;9.782;2022-11-23T07:03:59;91536.44;;;3.08;100.00
21658;BME280;10990;48.174;9.782;2022-11-23T07:06:30;91561.75;;;3.01;100.00
21658;BME280;10990;48.174;9.782;2022-11-23T07:09:02;91564.75;;;2.98;100.00
21658;BME280;10990;48.174;9.782;2022-11-23T07:12:08;91543.22;;;3.23;100.00
21658;BME280;10990;48.174;9.782;2022-11-23T07:14:35;91554.81;;;3.33;100.00
21658;BME280;10990;48.174;9.782;2022-11-23T07:17:02;91548.72;;;3.46;100.00
21658;BME280;10990;48.174;9.782;2022-11-23T07:19:29;91553.16;;;3.46;100.00
21658;BME280;10990;48.174;9.782;2022-11-23T07:21:58;91563.00;;;3.50;100.00
21658;BME280;10990;48.174;9.782;2022-11-23T07:24:25;91591.19;;;3.28;100.00
21658;BME280;10990;48.174;9.782;2022-11-23T07:26:51;91595.38;;;3.29;100.00
21658;BME280;10990;48.174;9.782;2022-11-23T07:29:20;91583.50;;;3.47;100.00
21658;BME280;10990;48.174;9.782;2022-11-23T07:31:46;91588.13;;;3.45;100.00
21658;BME280;10990;48.174;9.782;2022-11-23T07:34:13;91586.31;;;3.45;100.00
21658;BME280;10990;48.174;9.782;2022-11-23T07:36:41;91595.16;;;3.44;100.00
21658;BME280;10990;48.174;9.782;2022-11-23T07:39:09;91619.50;;;3.31;100.00
21658;BME280;10990;48.174;9.782;2022-11-23T07:41:36;91609.81;;;3.45;100.00
21658;BME280;10990;48.174;9.782;2022-11-23T07:44:08;91613.22;;;3.52;100.00
21658;BME280;10990;48.174;9.782;2022-11-23T07:46:36;91621.44;;;3.56;100.00
21658;BME280;10990;48.174;9.782;2022-11-23T07:49:03;91605.63;;;3.82;100.00
21658;BME280;10990;48.174;9.782;2022-11-23T07:51:29;91605.00;;;3.87;100.00
21658;BME280;10990;48.174;9.782;2022-11-23T07:53:56;91605.50;;;4.09;100.00
21658;BME280;10990;48.174;9.782;2022-11-23T07:56:23;91615.94;;;4.09;100.00
21658;BME280;10990;48.174;9.782;2022-11-23T07:58:50;91614.06;;;4.23;100.00
21658;BME280;10990;48.174;9.782;2022-11-23T08:01:18;91638.03;;;4.13;100.00
21658;BME280;10990;48.174;9.782;2022-11-23T08:03:47;91609.06;;;4.46;100.00
21658;BME280;10990;48.174;9.782;2022-11-23T08:06:14;91643.97;;;4.34;100.00
21658;BME280;10990;48.174;9.782;2022-11-23T08:08:42;91632.72;;;4.58;100.00
21658;BME280;10990;48.174;9.782;2022-11-23T08:11:09;91549.75;;;5.94;100.00
21658;BME280;10990;48.174;9.782;2022-11-23T08:13:39;91553.84;;;6.44;100.00
21658;BME280;10990;48.174;9.782;2022-11-23T08:16:06;91587.47;;;7.01;100.00
21658;BME280;10990;48.174;9.782;2022-11-23T08:18:33;91558.50;;;7.59;100.00
21658;BME280;10990;48.174;9.782;2022-11-23T08:21:01;91608.31;;;8.18;100.00
21658;BME280;10990;48.174;9.782;2022-11-23T08:23:28;91725.22;;;8.11;100.00
21658;BME280;10990;48.174;9.782;2022-11-23T08:25:55;91807.69;;;8.63;100.00
21658;BME280;10990;48.174;9.782;2022-11-23T08:28:21;91832.41;;;9.88;100.00
21658;BME280;10990;48.174;9.782;2022-11-23T08:30:49;91988.38;;;10.21;100.00
21658;BME280;10990;48.174;9.782;2022-11-23T08:33:16;92110.19;;;10.65;100.00
21658;BME280;10990;48.174;9.782;2022-11-23T08:35:42;92212.78;;;11.13;100.00
21658;BME280;10990;48.174;9.782;2022-11-23T08:38:11;92350.41;;;11.76;100.00
21658;BME280;10990;48.174;9.782;2022-11-23T08:40:38;92435.94;;;13.23;100.00
21658;BME280;10990;48.174;9.782;2022-11-23T08:43:05;92630.13;;;12.74;100.00
21658;BME280;10990;48.174;9.782;2022-11-23T08:45:31;92717.28;;;13.40;100.00
21658;BME280;10990;48.174;9.782;2022-11-23T08:47:58;92791.38;;;13.87;100.00
21658;BME280;10990;48.174;9.782;2022-11-23T08:50:25;92960.81;;;13.44;100.00
21658;BME280;10990;48.174;9.782;2022-11-23T08:52:54;93088.25;;;13.80;100.00
21658;BME280;10990;48.174;9.782;2022-11-23T08:55:23;93189.91;;;14.74;100.00
21658;BME280;10990;48.174;9.782;2022-11-23T08:57:49;93321.72;;;15.17;100.00
21658;BME280;10990;48.174;9.782;2022-11-23T09:00:16;93416.53;;;15.82;100.00
21658;BME280;10990;48.174;9.782;2022-11-23T09:02:44;93582.38;;;16.08;100.00
21658;BME280;10990;48.174;9.782;2022-11-23T09:05:11;93704.66;;;15.93;100.00
21658;BME280;10990;48.174;9.782;2022-11-23T09:07:38;93812.75;;;15.77;100.00
21658;BME280;10990;48.174;9.782;2022-11-23T09:10:06;93844.78;;;15.03;100.00
21658;BME280;10990;48.174;9.782;2022-11-23T09:12:34;93848.44;;;16.06;100.00
21658;BME280;10990;48.174;9.782;2022-11-23T09:15:01;93947.13;;;16.48;100.00
21658;BME280;10990;48.174;9.782;2022-11-23T09:17:30;94038.22;;;16.51;100.00
21658;BME280;10990;48.174;9.782;2022-11-23T09:19:56;94091.22;;;15.93;100.00
21658;BME280;10990;48.174;9.782;2022-11-23T09:22:23;94110.44;;;16.20;100.00
21658;BME280;10990;48.174;9.782;2022-11-23T09:24:50;94155.09;;;16.06;100.00
21658;BME280;10990;48.174;9.782;2022-11-23T09:27:17;94143.19;;;15.33;100.00
21658;BME280;10990;48.174;9.782;2022-11-23T09:29:45;94160.63;;;14.46;100.00
21658;BME280;10990;48.174;9.782;2022-11-23T09:32:12;94124.03;;;15.75;100.00
21658;BME280;10990;48.174;9.782;2022-11-23T09:34:39;94163.44;;;15.66;100.00
21658;BME280;10990;48.174;9.782;2022-11-23T09:37:05;94159.56;;;15.62;100.00
21658;BME280;10990;48.174;9.782;2022-11-23T09:39:32;94171.97;;;15.50;100.00
21658;BME280;10990;48.174;9.782;2022-11-23T09:42:07;94204.69;;;16.13;100.00
21658;BME280;10990;48.174;9.782;2022-11-23T09:45:04;94182.88;;;15.10;100.00
21658;BME280;10990;48.174;9.782;2022-11-23T09:47:45;94111.63;;;16.05;100.00
21658;BME280;10990;48.174;9.782;2022-11-23T09:50:17;94214.59;;;15.81;100.00
21658;BME280;10990;48.174;9.782;2022-11-23T09:52:48;94241.09;;;17.37;100.00
21658;BME280;10990;48.174;9.782;2022-11-23T09:55:21;94284.16;;;18.19;100.00
21658;BME280;10990;48.174;9.782;2022-11-23T09:57:53;94360.19;;;18.00;100.00
21658;BME280;10990;48.174;9.782;2022-11-23T10:00:23;94404.94;;;16.12;100.00
21658;BME280;10990;48.174;9.782;2022-11-23T10:02:50;94348.56;;;16.84;100.00
21658;BME280;10990;48.174;9.782;2022-11-23T10:05:20;94378.44;;;17.54;100.00
21658;BME280;10990;48.174;9.782;2022-11-23T10:08:01;94408.75;;;17.05;100.00
21658;BME280;10990;48.174;9.782;2022-11-23T10:10:38;94433.91;;;17.77;100.00
21658;BME280;10990;48.174;9.782;2022-11-23T10:13:18;94458.47;;;17.06;100.00
21658;BME280;10990;48.174;9.782;2022-11-23T10:18:55;94484.00;;;16.00;100.00
21658;BME280;10990;48.174;9.782;2022-11-23T10:21:33;94479.09;;;17.23;100.00
21658;BME280;10990;48.174;9.782;2022-11-23T10:24:10;94497.06;;;17.35;100.00
21658;BME280;10990;48.174;9.782;2022-11-23T10:26:40;94497.53;;;17.50;100.00
21658;BME280;10990;48.174;9.782;2022-11-23T10:29:12;94502.91;;;17.00;100.00
21658;BME280;10990;48.174;9.782;2022-11-23T10:31:44;94511.91;;;16.74;100.00
21658;BME280;10990;48.174;9.782;2022-11-23T10:34:13;94516.81;;;14.21;100.00
21658;BME280;10990;48.174;9.782;2022-11-23T10:36:41;94491.75;;;12.63;100.00
21658;BME280;10990;48.174;9.782;2022-11-23T10:39:16;94435.69;;;12.23;100.00
21658;BME280;10990;48.174;9.782;2022-11-23T10:41:45;94370.25;;;11.80;100.00
21658;BME280;10990;48.174;9.782;2022-11-23T10:44:28;94312.78;;;11.81;100.00
21658;BME280;10990;48.174;9.782;2022-11-23T10:46:57;94297.00;;;11.30;100.00
21658;BME280;10990;48.174;9.782;2022-11-23T10:49:26;94232.72;;;10.78;100.00
21658;BME280;10990;48.174;9.782;2022-11-23T10:51:55;94152.84;;;11.04;100.00
21658;BME280;10990;48.174;9.782;2022-11-23T10:54:25;94108.19;;;10.94;100.00
21658;BME280;10990;48.174;9.782;2022-11-23T10:56:53;94100.63;;;10.70;100.00
21658;BME280;10990;48.174;9.782;2022-11-23T10:59:32;94079.47;;;10.70;100.00
21658;BME280;10990;48.174;9.782;2022-11-23T11:02:20;94062.25;;;10.74;100.00
21658;BME280;10990;48.174;9.782;2022-11-23T11:04:48;94048.72;;;10.62;100.00
21658;BME280;10990;48.174;9.782;2022-11-23T11:07:21;94004.59;;;10.63;100.00
21658;BME280;10990;48.174;9.782;2022-11-23T11:09:54;94005.78;;;10.60;100.00
21658;BME280;10990;48.174;9.782;2022-11-23T11:12:22;94017.81;;;10.63;100.00
21658;BME280;10990;48.174;9.782;2022-11-23T11:15:00;94037.25;;;10.19;100.00
21658;BME280;10990;48.174;9.782;2022-11-23T11:17:33;94011.38;;;10.29;100.00
21658;BME280;10990;48.174;9.782;2022-11-23T11:20:28;93990.78;;;10.24;100.00
21658;BME280;10990;48.174;9.782;2022-11-23T11:22:57;94034.38;;;10.14;100.00
21658;BME280;10990;48.174;9.782;2022-11-23T11:25:27;94025.13;;;10.24;100.00
21658;BME280;10990;48.174;9.782;2022-11-23T11:27:55;94023.47;;;10.38;100.00
21658;BME280;10990;48.174;9.782;2022-11-23T11:30:24;94009.88;;;10.41;100.00
21658;BME280;10990;48.174;9.782;2022-11-23T11:32:57;94044.34;;;10.33;100.00
21658;BME280;10990;48.174;9.782;2022-11-23T11:35:26;94032.41;;;10.37;100.00
21658;BME280;10990;48.174;9.782;2022-11-23T11:37:58;94058.84;;;10.22;100.00
21658;BME280;10990;48.174;9.782;2022-11-23T11:40:30;94036.25;;;10.35;100.00
21658;BME280;10990;48.174;9.782;2022-11-23T11:43:03;94040.72;;;10.34;100.00
21658;BME280;10990;48.174;9.782;2022-11-23T11:45:32;94033.59;;;10.35;100.00
21658;BME280;10990;48.174;9.782;2022-11-23T11:48:09;94035.88;;;10.38;100.00
21658;BME280;10990;48.174;9.782;2022-11-23T11:50:43;94056.31;;;10.29;100.00
21658;BME280;10990;48.174;9.782;2022-11-23T11:53:17;94064.59;;;10.26;100.00
21658;BME280;10990;48.174;9.782;2022-11-23T11:55:50;94071.81;;;10.17;100.00
21658;BME280;10990;48.174;9.782;2022-11-23T11:58:21;94072.44;;;10.19;100.00
21658;BME280;10990;48.174;9.782;2022-11-23T12:00:50;94107.72;;;10.12;100.00
21658;BME280;10990;48.174;9.782;2022-11-23T12:03:26;94153.50;;;10.19;100.00
21658;BME280;10990;48.174;9.782;2022-11-23T12:06:04;94157.06;;;10.26;100.00
21658;BME280;10990;48.174;9.782;2022-11-23T12:08:39;94162.06;;;10.21;100.00
21658;BME280;10990;48.174;9.782;2022-11-23T12:11:10;94183.47;;;10.26;100.00
21658;BME280;10990;48.174;9.782;2022-11-23T12:13:41;94197.53;;;10.12;100.00
21658;BME280;10990;48.174;9.782;2022-11-23T12:16:17;94221.75;;;10.00;100.00
21658;BME280;10990;48.174;9.782;2022-11-23T12:18:58;94198.09;;;10.37;100.00
21658;BME280;10990;48.174;9.782;2022-11-23T12:21:46;94225.59;;;10.27;100.00
21658;BME280;10990;48.174;9.782;2022-11-23T12:24:22;94231.84;;;10.26;100.00
21658;BME280;10990;48.174;9.782;2022-11-23T12:26:56;94275.22;;;10.17;100.00
21658;BME280;10990;48.174;9.782;2022-11-23T12:29:34;94272.50;;;10.25;100.00
21658;BME280;10990;48.174;9.782;2022-11-23T12:32:11;94273.03;;;10.21;100.00
21658;BME280;10990;48.174;9.782;2022-11-23T12:34:55;94259.13;;;10.27;100.00
21658;BME280;10990;48.174;9.782;2022-11-23T12:37:40;94264.88;;;10.30;100.00
21658;BME280;10990;48.174;9.782;2022-11-23T12:40:31;94248.44;;;10.20;100.00
21658;BME280;10990;48.174;9.782;2022-11-23T12:43:05;94265.63;;;10.16;100.00
21658;BME280;10990;48.174;9.782;2022-11-23T12:45:49;94267.31;;;10.17;100.00
21658;BME280;10990;48.174;9.782;2022-11-23T12:48:31;94257.13;;;10.29;100.00
21658;BME280;10990;48.174;9.782;2022-11-23T12:51:12;94307.97;;;10.31;100.00
21658;BME280;10990;48.174;9.782;2022-11-23T12:53:52;94337.41;;;10.28;100.00
21658;BME280;10990;48.174;9.782;2022-11-23T12:56:33;94322.38;;;10.28;100.00
21658;BME280;10990;48.174;9.782;2022-11-23T12:59:08;94315.59;;;10.26;100.00
21658;BME280;10990;48.174;9.782;2022-11-23T13:01:40;94338.88;;;10.07;100.00
21658;BME280;10990;48.174;9.782;2022-11-23T13:04:33;94337.63;;;10.18;100.00
21658;BME280;10990;48.174;9.782;2022-11-23T13:07:33;94350.53;;;10.13;100.00
21658;BME280;10990;48.174;9.782;2022-11-23T13:10:14;94353.03;;;10.15;100.00
21658;BME280;10990;48.174;9.782;2022-11-23T13:13:21;94370.34;;;10.17;100.00
21658;BME280;10990;48.174;9.782;2022-11-23T13:16:12;94364.50;;;10.22;100.00
21658;BME280;10990;48.174;9.782;2022-11-23T13:18:53;94370.63;;;10.22;100.00
21658;BME280;10990;48.174;9.782;2022-11-23T13:21:26;94384.88;;;10.13;100.00